Aviation Digital Data Service (ADDS)

Output produced by METARs form (0147 UTC 25 February 2018)
found at http://aviationweather.gov/adds/metars/
 
KMSY 250053Z 19008KT 10SM FEW025 FEW070 FEW250 24/21 A3001 RMK AO2 SLP166 T02390211 $